Time;durP1;ratioP1;P1;durP2;ratioP2;P2;SDS_P1;SDS_P2;PMS_P1;PMS_P2;Temp;Humidity;BMP_temperature;BMP_pressure;BME280_temperature;BME280_humidity;BME280_pressure;Samples;Min_cycle;Max_cycle;Signal;HPM_P1;HPM_P2
2022/08/13 00:02:21;;;;;;;13.13;8.53;;;;;;;20.84;100.00;100711.91;1781856;80;20994;-90
2022/08/13 00:04:59;;;;;;;10.45;9.30;;;;;;;20.82;100.00;100714.74;1762089;80;20946;-89
2022/08/13 00:07:30;;;;;;;13.53;9.28;;;;;;;20.82;100.00;100712.58;1757504;81;21838;-90
2022/08/13 00:10:00;;;;;;;11.40;8.48;;;;;;;20.78;100.00;100710.80;1781788;80;21051;-89
2022/08/13 00:15:27;;;;;;;12.88;9.35;;;;;;;20.69;100.00;100708.72;1765128;81;21003;-90
2022/08/13 00:18:02;;;;;;;12.10;9.63;;;;;;;20.67;100.00;100713.36;1760189;81;21010;-90
2022/08/13 00:20:40;;;;;;;11.70;10.15;;;;;;;20.65;100.00;100711.37;1750870;80;21807;-90
2022/08/13 00:23:13;;;;;;;12.18;10.00;;;;;;;20.67;100.00;100713.87;1742874;81;21528;-90
2022/08/13 00:25:42;;;;;;;11.83;10.32;;;;;;;20.64;100.00;100703.95;1782180;80;20986;-90
2022/08/13 00:28:19;;;;;;;15.00;10.40;;;;;;;20.64;100.00;100705.28;1787572;80;21009;-90
2022/08/13 00:30:47;;;;;;;13.35;10.78;;;;;;;20.62;100.00;100705.95;1762510;81;21536;-89
2022/08/13 00:33:19;;;;;;;17.07;12.15;;;;;;;20.63;100.00;100710.77;1755138;80;21110;-89
2022/08/13 00:35:53;;;;;;;13.80;12.07;;;;;;;20.60;100.00;100708.46;1752702;81;21424;-89
2022/08/13 00:38:30;;;;;;;18.77;12.30;;;;;;;20.58;100.00;100711.78;1747696;80;20955;-89
2022/08/13 00:40:59;;;;;;;16.75;12.68;;;;;;;20.55;100.00;100704.22;1751167;82;21034;-91
2022/08/13 00:43:33;;;;;;;14.38;12.60;;;;;;;20.53;100.00;100702.25;1750922;80;21887;-90
2022/08/13 00:46:04;;;;;;;20.85;12.82;;;;;;;20.52;100.00;100706.70;1751112;82;21135;-89
2022/08/13 00:48:43;;;;;;;17.62;13.08;;;;;;;20.52;100.00;100701.92;1750937;80;21081;-90
2022/08/13 00:51:13;;;;;;;19.52;13.13;;;;;;;20.53;100.00;100700.92;1778698;79;20983;-90
2022/08/13 00:53:45;;;;;;;14.75;13.13;;;;;;;20.52;100.00;100698.77;1782100;80;21476;-90
2022/08/13 00:56:17;;;;;;;19.37;13.55;;;;;;;20.53;100.00;100700.92;1775872;80;20983;-90
2022/08/13 00:58:46;;;;;;;17.77;13.30;;;;;;;20.52;100.00;100693.47;1766861;81;22708;-89
2022/08/13 01:01:14;;;;;;;19.07;13.53;;;;;;;20.52;100.00;100695.31;1787095;80;20987;-89
2022/08/13 01:03:45;;;;;;;15.38;12.63;;;;;;;20.52;100.00;100697.95;1788863;80;21045;-90
2022/08/13 01:06:13;;;;;;;16.75;12.90;;;;;;;20.52;100.00;100697.95;1788966;80;21045;-90
2022/08/13 01:08:42;;;;;;;19.35;14.40;;;;;;;20.53;100.00;100701.73;1788861;79;21750;-89
2022/08/13 01:11:15;;;;;;;15.70;12.90;;;;;;;20.55;100.00;100706.87;1788849;80;21183;-90
2022/08/13 01:13:47;;;;;;;16.82;12.70;;;;;;;20.54;100.00;100703.38;1788794;80;21069;-89
2022/08/13 01:16:19;;;;;;;14.73;11.28;;;;;;;20.53;100.00;100699.61;1788985;80;21511;-90
2022/08/13 01:18:50;;;;;;;14.23;11.57;;;;;;;20.52;100.00;100701.41;1788729;80;21006;-90
2022/08/13 01:21:25;;;;;;;16.95;11.95;;;;;;;20.54;100.00;100699.92;1788768;80;20990;-89
2022/08/13 01:23:55;;;;;;;18.48;11.75;;;;;;;20.55;100.00;100694.97;1772841;80;21156;-90
2022/08/13 01:26:24;;;;;;;16.37;12.13;;;;;;;20.55;100.00;100694.97;1757584;81;20958;-90
2022/08/13 01:28:53;;;;;;;14.23;11.40;;;;;;;20.54;100.00;100688.03;1757714;81;21625;-90
2022/08/13 01:31:21;;;;;;;16.20;11.93;;;;;;;20.54;100.00;100691.99;1758079;81;21551;-91
2022/08/13 01:33:59;;;;;;;12.75;10.68;;;;;;;20.54;100.00;100691.99;1758167;81;21068;-90
2022/08/13 01:36:22;;;;;;;15.88;10.72;;;;;;;20.54;100.00;100695.45;1755552;81;21496;-90
2022/08/13 01:38:52;;;;;;;16.20;11.63;;;;;;;20.55;100.00;100693.64;1767457;79;20928;-90
2022/08/13 01:41:21;;;;;;;16.82;10.72;;;;;;;20.55;100.00;100694.97;1776379;80;20994;-89
2022/08/13 01:43:49;;;;;;;14.98;10.63;;;;;;;20.56;100.00;100693.94;1775986;80;21022;-89
2022/08/13 01:46:17;;;;;;;14.20;10.75;;;;;;;20.56;100.00;100687.33;1776373;80;21097;-89
2022/08/13 01:51:36;;;;;;;15.20;11.65;;;;;;;20.55;100.00;100687.84;1793378;79;21553;-89
2022/08/13 01:54:05;;;;;;;16.95;11.03;;;;;;;20.57;100.00;100682.36;1797470;79;21063;-90
2022/08/13 01:56:33;;;;;;;15.70;11.57;;;;;;;20.57;100.00;100688.48;1780031;79;21075;-91
2022/08/13 01:59:03;;;;;;;15.58;11.15;;;;;;;20.57;100.00;100683.68;1765718;80;21104;-90
2022/08/13 02:01:33;;;;;;;13.83;11.68;;;;;;;20.56;100.00;100680.23;1765506;80;21871;-90
2022/08/13 02:04:02;;;;;;;16.77;11.93;;;;;;;20.56;100.00;100682.03;1741803;79;21024;-90
2022/08/13 02:06:31;;;;;;;16.17;11.68;;;;;;;20.55;100.00;100686.52;1748051;82;21028;-90
2022/08/13 02:09:03;;;;;;;16.02;11.83;;;;;;;20.54;100.00;100690.16;1745828;81;21534;-90
2022/08/13 02:11:35;;;;;;;17.27;12.00;;;;;;;20.52;100.00;100688.70;1719165;83;21047;-91
2022/08/13 02:14:05;;;;;;;17.00;12.20;;;;;;;20.48;100.00;100693.02;1748310;82;21187;-90
2022/08/13 02:16:36;;;;;;;13.85;11.35;;;;;;;20.45;100.00;100693.39;1745779;82;21017;-90
2022/08/13 02:19:08;;;;;;;15.18;11.80;;;;;;;20.41;100.00;100689.44;1748320;81;20969;-90
2022/08/13 02:21:40;;;;;;;15.30;12.27;;;;;;;20.36;100.00;100689.16;1746142;82;21018;-90
2022/08/13 02:24:14;;;;;;;15.80;11.28;;;;;;;20.32;100.00;100686.54;1719398;83;21010;-90
2022/08/13 02:26:43;;;;;;;18.85;12.35;;;;;;;20.29;100.00;100695.66;1748247;82;21245;-90
2022/08/13 02:29:14;;;;;;;20.77;12.63;;;;;;;20.28;100.00;100690.55;1745782;82;21064;-90
2022/08/13 02:31:42;;;;;;;18.70;13.13;;;;;;;20.27;100.00;100686.27;1719641;83;21041;-90
2022/08/13 02:34:12;;;;;;;14.85;11.83;;;;;;;20.26;100.00;100690.73;1748275;82;21392;-90
2022/08/13 02:36:40;;;;;;;15.48;13.48;;;;;;;20.26;100.00;100680.64;1745879;82;21000;-90
2022/08/13 02:39:09;;;;;;;14.87;13.25;;;;;;;20.25;100.00;100678.52;1719317;83;21162;-89
2022/08/13 02:41:43;;;;;;;16.85;13.28;;;;;;;20.27;100.00;100679.65;1748924;80;21029;-90
2022/08/13 02:44:15;;;;;;;17.42;14.30;;;;;;;20.30;100.00;100681.95;1761423;80;21084;-91
2022/08/13 02:46:50;;;;;;;19.12;14.30;;;;;;;20.32;100.00;100678.61;1762776;80;21530;-90
2022/08/13 02:49:14;;;;;;;17.82;15.93;;;;;;;20.34;100.00;100684.55;1742074;81;21050;-89
2022/08/13 02:51:46;;;;;;;22.58;15.25;;;;;;;20.38;100.00;100686.33;1745671;82;21145;-91
2022/08/13 02:54:20;;;;;;;18.07;14.95;;;;;;;20.40;100.00;100689.11;1745781;82;20970;-93
2022/08/13 02:56:47;;;;;;;19.73;15.03;;;;;;;20.44;100.00;100685.61;1767467;79;21015;-92
2022/08/13 02:59:15;;;;;;;21.50;14.70;;;;;;;20.48;100.00;100687.72;1796246;79;20985;-92
2022/08/13 03:01:46;;;;;;;19.17;14.65;;;;;;;20.51;100.00;100683.08;1787529;80;21021;-92
2022/08/13 03:04:16;;;;;;;18.62;14.47;;;;;;;20.54;100.00;100681.41;1787506;80;21244;-92
2022/08/13 03:06:46;;;;;;;18.20;14.20;;;;;;;20.58;100.00;100673.42;1789343;79;21098;-90
2022/08/13 03:09:14;;;;;;;19.32;13.98;;;;;;;20.64;100.00;100677.51;1795645;79;21081;-91
2022/08/13 03:11:43;;;;;;;19.50;14.40;;;;;;;20.70;100.00;100679.94;1796892;79;20990;-91
2022/08/13 03:14:12;;;;;;;19.48;13.13;;;;;;;20.75;100.00;100686.05;1797580;79;21017;-92
2022/08/13 03:16:40;;;;;;;15.55;12.98;;;;;;;20.81;100.00;100682.67;1779724;79;21488;-91
2022/08/13 03:19:08;;;;;;;17.82;13.93;;;;;;;20.85;100.00;100679.16;1766032;81;21013;-91
2022/08/13 03:21:41;;;;;;;18.95;14.33;;;;;;;20.88;100.00;100676.12;1766085;81;21076;-92
2022/08/13 03:24:14;;;;;;;19.17;13.95;;;;;;;20.90;100.00;100675.45;1777960;79;21017;-91
2022/08/13 03:26:44;;;;;;;22.62;14.73;;;;;;;20.92;100.00;100677.42;1784789;79;21060;-91
2022/08/13 03:29:17;;;;;;;19.32;14.87;;;;;;;20.93;100.00;100676.42;1785188;79;22015;-93
2022/08/13 03:31:46;;;;;;;22.85;17.10;;;;;;;20.97;100.00;100673.72;1783001;79;21421;-89
2022/08/13 03:34:20;;;;;;;26.70;17.35;;;;;;;21.00;100.00;100668.06;1784645;79;22222;-89
2022/08/13 03:36:50;;;;;;;22.62;16.70;;;;;;;21.05;100.00;100674.95;1764139;81;21036;-89
2022/08/13 03:39:20;;;;;;;;;;;;;;;21.10;100.00;100667.30;1783357;79;20930;-89
2022/08/13 03:41:48;;;;;;;19.35;15.40;;;;;;;21.20;100.00;100666.17;1787404;80;21840;-89
2022/08/13 03:44:19;;;;;;;20.70;15.88;;;;;;;21.31;100.00;100671.00;1787441;80;21018;-89
2022/08/13 03:46:47;;;;;;;19.27;15.63;;;;;;;21.44;100.00;100671.16;1787843;80;21030;-89
2022/08/13 03:49:15;;;;;;;17.98;15.30;;;;;;;21.56;100.00;100672.01;1787477;79;20982;-89
2022/08/13 03:51:43;;;;;;;17.25;15.55;;;;;;;21.66;100.00;100674.38;1787671;80;21549;-89
2022/08/13 03:54:13;;;;;;;18.80;15.58;;;;;;;21.75;100.00;100668.77;1793371;79;21105;-89
2022/08/13 03:56:44;;;;;;;17.65;15.80;;;;;;;21.85;100.00;100674.27;1794404;79;20998;-90
2022/08/13 03:59:16;;;;;;;18.25;15.43;;;;;;;21.93;100.00;100670.17;1782897;80;21069;-89
2022/08/13 04:01:45;;;;;;;18.30;15.93;;;;;;;22.01;100.00;100666.07;1786103;80;21100;-89
2022/08/13 04:04:16;;;;;;;17.92;15.60;;;;;;;22.07;100.00;100665.83;1786551;80;21045;-89
2022/08/13 04:06:44;;;;;;;18.37;15.72;;;;;;;22.13;100.00;100665.58;1786703;80;39913;-90
2022/08/13 04:09:11;;;;;;;20.97;16.02;;;;;;;22.17;100.00;100661.03;1786797;80;21084;-89
2022/08/13 04:11:39;;;;;;;17.48;15.58;;;;;;;22.22;100.00;100659.94;1786568;80;21483;-89
2022/08/13 04:14:06;;;;;;;18.25;16.32;;;;;;;22.27;100.00;100655.39;1786725;80;21029;-90
2022/08/13 04:16:35;;;;;;;19.57;16.02;;;;;;;22.32;100.00;100655.62;1786650;80;21010;-90
2022/08/13 04:19:03;;;;;;;21.33;16.15;;;;;;;22.36;100.00;100654.24;1786664;80;21177;-89
2022/08/13 04:21:37;;;;;;;19.75;15.58;;;;;;;22.42;100.00;100656.66;1786854;80;21026;-89
2022/08/13 04:24:06;;;;;;;21.52;15.80;;;;;;;22.49;100.00;100650.06;1779893;80;21045;-89
2022/08/13 04:26:33;;;;;;;18.52;15.23;;;;;;;22.57;100.00;100658.39;1762833;80;21532;-89
2022/08/13 04:29:05;;;;;;;19.67;15.63;;;;;;;22.63;100.00;100647.00;1771914;80;21050;-89
2022/08/13 04:31:32;;;;;;;17.10;15.40;;;;;;;22.72;100.00;100652.96;1775432;80;21220;-90
2022/08/13 04:34:00;;;;;;;19.65;16.50;;;;;;;22.78;100.00;100646.89;1777430;80;21392;-89
2022/08/13 04:36:28;;;;;;;21.07;16.48;;;;;;;22.84;100.00;100646.11;1777936;80;20950;-90
2022/08/13 04:38:56;;;;;;;20.97;16.12;;;;;;;22.90;100.00;100653.28;1777778;80;21073;-89
2022/08/13 04:41:24;;;;;;;18.55;16.12;;;;;;;22.97;100.00;100648.02;1778081;80;21062;-90
2022/08/13 04:43:51;;;;;;;18.75;16.45;;;;;;;23.05;100.00;100647.02;1777767;80;21110;-89
2022/08/13 04:46:19;;;;;;;20.02;16.10;;;;;;;23.12;100.00;100643.87;1777026;80;21173;-90
2022/08/13 04:48:50;;;;;;;22.45;16.97;;;;;;;23.20;100.00;100645.59;1777821;80;20991;-90
2022/08/13 04:51:18;;;;;;;20.08;16.17;;;;;;;23.28;100.00;100645.42;1777773;80;21003;-89
2022/08/13 04:53:48;;;;;;;19.60;17.45;;;;;;;23.37;100.00;100634.09;1777731;80;21480;-89
2022/08/13 04:56:16;;;;;;;21.33;17.17;;;;;;;23.46;100.00;100636.39;1777958;80;21504;-88
2022/08/13 04:58:43;;;;;;;18.75;16.15;;;;;;;23.58;100.00;100640.61;1777497;80;21002;-89
2022/08/13 05:01:12;;;;;;;19.55;16.27;;;;;;;23.74;100.00;100638.59;1775597;80;21034;-89
2022/08/13 05:03:47;;;;;;;21.80;18.07;;;;;;;23.89;100.00;100631.25;1782200;80;21562;-89
2022/08/13 05:06:21;;;;;;;19.60;17.37;;;;;;;24.03;100.00;100629.95;1787862;80;21622;-88
2022/08/13 05:08:51;;;;;;;21.40;17.35;;;;;;;24.15;100.00;100632.32;1787662;80;22056;-91
2022/08/13 05:11:19;;;;;;;21.73;18.37;;;;;;;24.23;100.00;100628.13;1787539;80;21128;-88
2022/08/13 05:13:47;;;;;;;21.30;17.85;;;;;;;24.29;100.00;100629.11;1787746;79;20999;-88
2022/08/13 05:16:18;;;;;;;20.65;17.73;;;;;;;24.31;100.00;100621.75;1787721;79;20991;-88
2022/08/13 05:18:53;;;;;;;19.00;16.50;;;;;;;24.35;100.00;100621.66;1785862;80;21076;-88
2022/08/13 05:21:24;;;;;;;20.02;17.82;;;;;;;24.40;100.00;100623.67;1761372;81;21154;-89
2022/08/13 05:23:53;;;;;;;;;;;;;;;24.43;100.00;100624.60;1769930;81;21077;-87
2022/08/13 05:26:25;;;;;;;24.50;17.90;;;;;;;24.46;100.00;100628.19;1763546;81;20146;-88
2022/08/13 05:28:53;;;;;;;22.52;17.87;;;;;;;24.50;100.00;100628.07;1774303;80;21048;-86
2022/08/13 05:31:20;;;;;;;20.60;17.77;;;;;;;24.54;100.00;100629.30;1772777;80;21081;-87
2022/08/13 05:33:50;;;;;;;21.55;17.95;;;;;;;24.60;100.00;100630.30;1773120;80;21769;-87
2022/08/13 05:36:21;;;;;;;24.40;18.50;;;;;;;24.67;100.00;100624.99;1776363;80;21652;-87
2022/08/13 05:38:48;;;;;;;20.88;17.55;;;;;;;24.76;100.00;100625.61;1778730;79;21051;-90
2022/08/13 05:41:17;;;;;;;25.32;18.27;;;;;;;24.83;100.00;100628.53;1778439;80;21039;-88
2022/08/13 05:43:47;;;;;;;20.60;18.02;;;;;;;24.91;100.00;100622.17;1778563;80;21044;-87
2022/08/13 05:46:19;;;;;;;20.70;18.53;;;;;;;25.01;100.00;100626.52;1778922;79;21140;-88
2022/08/13 05:48:57;;;;;;;25.00;19.27;;;;;;;25.10;100.00;100625.78;1778919;80;20996;-87
2022/08/13 05:51:31;;;;;;;21.23;18.90;;;;;;;25.15;100.00;100624.63;1780290;79;21049;-88
2022/08/13 05:54:02;;;;;;;19.75;17.12;;;;;;;25.22;100.00;100625.09;1779046;80;21552;-87
2022/08/13 05:56:37;;;;;;;20.90;18.25;;;;;;;25.29;100.00;100625.38;1779080;80;21096;-90
2022/08/13 05:59:06;;;;;;;23.52;19.42;;;;;;;25.41;100.00;100625.55;1773842;80;21938;-90
2022/08/13 06:05:03;;;;;;;20.72;18.73;;;;;;;25.55;100.00;100619.64;1808816;79;20991;-90
2022/08/13 06:07:32;;;;;;;20.97;18.95;;;;;;;25.64;100.00;100618.84;1805896;79;20994;-94
2022/08/13 06:10:39;;;;;;;26.68;19.42;;;;;;;25.68;100.00;100618.70;1797359;79;21073;-90
2022/08/13 06:17:20;;;;;;;21.10;18.65;;;;;;;25.87;100.00;100622.78;1753511;80;20986;-92
2022/08/13 06:20:02;;;;;;;21.62;18.07;;;;;;;26.02;100.00;100625.14;1729802;82;21512;-92
2022/08/13 06:22:34;;;;;;;22.58;18.12;;;;;;;26.09;100.00;100624.59;1712167;83;20998;-91
2022/08/13 06:25:10;;;;;;;22.35;18.95;;;;;;;26.15;100.00;100625.05;1717539;82;21595;-93
2022/08/13 06:31:47;;;;;;;21.52;18.85;;;;;;;26.31;100.00;100626.36;1760891;80;20998;-92
2022/08/13 06:34:21;;;;;;;20.10;18.07;;;;;;;26.45;100.00;100621.18;1764513;80;21085;-91
2022/08/13 06:37:28;;;;;;;21.10;18.95;;;;;;;26.55;100.00;100621.99;1769986;80;20995;-91
2022/08/13 06:40:05;;;;;;;20.77;18.55;;;;;;;26.66;100.00;100621.77;1788374;80;21572;-92
2022/08/13 06:43:09;;;;;;;20.85;18.67;;;;;;;26.81;100.00;100617.44;1768551;81;21873;-93
2022/08/13 06:49:41;;;;;;;19.52;17.50;;;;;;;27.01;100.00;100619.86;1726913;83;20985;-91
2022/08/13 06:55:58;;;;;;;23.40;18.98;;;;;;;27.28;100.00;100624.84;1738496;82;21097;-92
2022/08/13 06:58:37;;;;;;;20.12;18.17;;;;;;;27.36;100.00;100624.53;1738637;82;21953;-91
2022/08/13 07:01:32;;;;;;;24.02;19.12;;;;;;;27.42;100.00;100616.66;1709245;82;21058;-91
2022/08/13 07:08:17;;;;;;;18.23;16.17;;;;;;;27.60;100.00;100621.16;1737243;81;21021;-90
2022/08/13 07:11:21;;;;;;;18.82;16.67;;;;;;;27.73;100.00;100624.15;1740859;82;21010;-90
2022/08/13 07:13:18;;;;;;;18.10;16.23;;;;;;;27.78;100.00;100629.11;1739044;81;21719;-90
2022/08/13 07:15:48;;;;;;;20.40;17.77;;;;;;;27.85;100.00;100627.14;1752883;81;21030;-93
2022/08/13 07:18:16;;;;;;;23.83;16.85;;;;;;;27.93;100.00;100631.86;1742415;81;21059;-90
2022/08/13 07:21:21;;;;;;;19.92;17.90;;;;;;;27.99;100.00;100638.45;1735503;82;21107;-91
2022/08/13 07:24:29;;;;;;;20.10;16.85;;;;;;;28.07;100.00;100633.83;1735738;82;21068;-91
2022/08/13 07:27:07;;;;;;;23.30;17.92;;;;;;;28.17;100.00;100633.54;1735558;82;21806;-90
2022/08/13 07:30:14;;;;;;;21.23;16.07;;;;;;;28.31;100.00;100637.31;1714416;82;21000;-91
2022/08/13 07:36:33;;;;;;;23.27;16.93;;;;;;;28.52;100.00;100634.56;1735734;82;21028;-90
2022/08/13 07:43:12;;;;;;;21.48;18.30;;;;;;;28.61;100.00;100633.67;1735511;82;21613;-91
2022/08/13 07:46:19;;;;;;;24.32;17.57;;;;;;;28.72;100.00;100630.73;1735519;82;21506;-90
2022/08/13 07:48:52;;;;;;;21.10;17.15;;;;;;;28.82;100.00;100633.61;1735458;82;21558;-92
2022/08/13 07:51:25;;;;;;;22.85;16.80;;;;;;;28.91;100.00;100631.38;1735482;82;21067;-91
2022/08/13 07:57:23;;;;;;;26.55;16.55;;;;;;;29.08;100.00;100616.69;1735034;82;21804;-88
2022/08/13 07:59:51;;;;;;;20.97;16.20;;;;;;;29.20;100.00;100615.30;1735046;82;21024;-89
2022/08/13 08:02:18;;;;;;;27.40;15.88;;;;;;;29.28;100.00;100610.36;1735083;82;21080;-88
2022/08/13 08:04:46;;;;;;;19.80;15.23;;;;;;;29.37;100.00;100612.17;1735429;82;21099;-90
2022/08/13 08:07:16;;;;;;;26.07;15.68;;;;;;;29.48;100.00;100612.36;1734879;82;21020;-91
2022/08/13 08:09:45;;;;;;;27.70;14.13;;;;;;;29.58;99.15;100612.00;1735348;82;21322;-89
2022/08/13 08:12:35;;;;;;;20.70;13.28;;;;;;;29.69;99.48;100606.27;1735077;82;21079;-89
2022/08/13 08:15:00;;;;;;;28.23;14.38;;;;;;;29.81;99.86;100607.53;1741057;81;21557;-89
2022/08/13 08:17:33;;;;;;;20.57;13.93;;;;;;;29.93;97.12;100610.67;1740481;81;21073;-88
2022/08/13 08:20:06;;;;;;;24.23;14.15;;;;;;;30.02;100.00;100612.72;1745173;81;21010;-88
2022/08/13 08:22:35;;;;;;;18.35;14.25;;;;;;;30.12;98.65;100609.91;1751835;81;21966;-88
2022/08/13 08:25:04;;;;;;;30.70;15.10;;;;;;;30.20;95.81;100611.62;1751685;81;21096;-88
2022/08/13 08:27:36;;;;;;;26.20;13.93;;;;;;;30.26;92.57;100611.17;1751800;81;21045;-89
2022/08/13 08:30:06;;;;;;;25.35;13.25;;;;;;;30.31;90.98;100610.44;1751392;81;21077;-88
2022/08/13 08:32:35;;;;;;;;;;;;;;;30.36;94.21;100606.47;1749631;81;21065;-89
2022/08/13 08:35:04;;;;;;;22.98;14.65;;;;;;;30.42;90.91;100601.44;1721446;83;21141;-90
2022/08/13 08:43:10;;;;;;;18.70;13.35;;;;;;;30.61;93.22;100597.14;1731474;81;21069;-88
2022/08/13 08:45:40;;;;;;;25.70;14.20;;;;;;;30.73;93.72;100597.81;1748641;81;21046;-89
2022/08/13 08:48:08;;;;;;;25.72;13.10;;;;;;;30.83;93.49;100584.50;1748414;81;21620;-89
2022/08/13 08:50:35;;;;;;;23.30;13.32;;;;;;;30.93;87.81;100580.31;1751380;81;21120;-88
2022/08/13 08:53:21;;;;;;;27.37;13.32;;;;;;;30.98;82.52;100576.31;1747970;81;21646;-87
2022/08/13 08:55:51;;;;;;;28.20;13.83;;;;;;;31.03;86.10;100571.02;1743558;81;21069;-88
2022/08/13 08:58:20;;;;;;;19.85;13.05;;;;;;;31.11;91.31;100569.24;1729274;81;21061;-90
2022/08/13 09:00:49;;;;;;;32.17;13.50;;;;;;;31.23;85.62;100561.53;1750014;81;21790;-89
2022/08/13 09:03:19;;;;;;;22.93;13.95;;;;;;;31.28;79.98;100562.94;1744293;81;21080;-89
2022/08/13 09:05:49;;;;;;;26.80;13.40;;;;;;;31.26;75.94;100563.72;1733198;81;21562;-88
2022/08/13 09:08:19;;;;;;;28.62;13.40;;;;;;;31.24;77.52;100563.16;1732104;81;21581;-90
2022/08/13 09:10:52;;;;;;;20.52;12.18;;;;;;;31.26;76.32;100559.14;1738586;81;21575;-89
2022/08/13 09:13:19;;;;;;;27.00;12.10;;;;;;;31.29;79.69;100553.78;1742158;81;21854;-88
2022/08/13 09:15:48;;;;;;;27.00;12.47;;;;;;;31.38;78.34;100550.91;1741043;81;21034;-89
2022/08/13 09:18:18;;;;;;;19.95;12.07;;;;;;;31.44;70.87;100546.38;1738287;81;21307;-89
2022/08/13 09:20:46;;;;;;;25.93;12.67;;;;;;;31.44;71.09;100544.52;1735228;81;21600;-89
2022/08/13 09:23:16;;;;;;;23.10;11.43;;;;;;;31.48;74.49;100531.36;1734201;81;21343;-90
2022/08/13 09:25:51;;;;;;;24.40;13.55;;;;;;;31.54;75.45;100537.05;1741656;81;22137;-91
2022/08/13 09:28:24;;;;;;;29.18;13.88;;;;;;;31.60;75.66;100539.25;1740799;81;21126;-90
2022/08/13 09:30:54;;;;;;;19.65;11.97;;;;;;;31.68;74.81;100528.04;1748068;81;21054;-93
2022/08/13 09:33:28;;;;;;;26.85;12.45;;;;;;;31.78;74.83;100529.43;1734654;81;21066;-91
2022/08/13 09:35:59;;;;;;;18.12;11.73;;;;;;;31.84;72.16;100520.05;1737663;81;21116;-90
2022/08/13 09:38:27;;;;;;;33.88;13.50;;;;;;;31.77;67.16;100523.77;1734895;81;21100;-87
2022/08/13 09:41:15;;;;;;;26.33;13.60;;;;;;;31.63;64.27;100523.41;1736265;81;21050;-86
2022/08/13 09:43:44;;;;;;;26.90;12.18;;;;;;;31.57;66.09;100520.92;1741612;81;21069;-87
2022/08/13 09:46:23;;;;;;;16.95;11.08;;;;;;;31.49;65.28;100515.47;1750438;81;21089;-87
2022/08/13 09:48:50;;;;;;;28.35;12.20;;;;;;;31.39;67.82;100514.87;1747016;81;20989;-87
2022/08/13 09:51:17;;;;;;;28.32;12.70;;;;;;;31.29;66.48;100514.27;1742909;81;21159;-87
2022/08/13 09:56:17;;;;;;;29.18;13.03;;;;;;;31.11;64.54;100505.23;1737766;81;21063;-87
2022/08/13 09:58:50;;;;;;;23.67;11.90;;;;;;;31.02;62.31;100511.59;1743565;81;21053;-86
2022/08/13 10:01:18;;;;;;;25.75;11.55;;;;;;;30.96;65.51;100509.92;1738193;81;21818;-87
2022/08/13 10:03:48;;;;;;;;;;;;;;;30.89;66.90;100497.23;1743425;81;21164;-87
2022/08/13 10:06:18;;;;;;;29.85;12.58;;;;;;;30.96;71.96;100492.45;1747850;81;20424;-87
2022/08/13 10:08:49;;;;;;;20.20;10.78;;;;;;;31.18;73.02;100487.55;1734499;81;20970;-87
2022/08/13 10:11:22;;;;;;;22.63;11.10;;;;;;;31.43;64.14;100492.30;1744091;81;21034;-86
2022/08/13 10:13:49;;;;;;;;;;;;;;;31.62;66.60;100485.97;1749735;81;21626;-87
2022/08/13 10:16:19;;;;;;;20.68;10.72;;;;;;;31.75;62.85;100486.91;1738978;81;21141;-87
2022/08/13 10:18:46;;;;;;;25.97;12.35;;;;;;;31.86;65.13;100493.67;1740601;81;21038;-87
2022/08/13 10:21:14;;;;;;;31.77;12.07;;;;;;;32.01;59.45;100484.87;1741014;81;21144;-86
2022/08/13 10:23:42;;;;;;;25.17;10.58;;;;;;;32.15;62.18;100486.55;1746540;81;21045;-86
2022/08/13 10:26:09;;;;;;;24.95;10.28;;;;;;;32.24;58.95;100497.13;1746217;81;21085;-86
2022/08/13 10:28:36;;;;;;;28.70;13.00;;;;;;;32.29;57.23;100491.74;1745250;81;21241;-88
2022/08/13 10:31:08;;;;;;;23.90;13.45;;;;;;;32.31;56.26;100488.26;1748249;81;21041;-88
2022/08/13 10:33:38;;;;;;;20.60;11.78;;;;;;;32.29;54.33;100488.25;1745547;81;21097;-87
2022/08/13 10:36:09;;;;;;;16.90;10.68;;;;;;;32.25;57.15;100490.12;1748300;80;21014;-87
2022/08/13 10:38:36;;;;;;;24.67;12.30;;;;;;;32.27;61.55;100485.80;1743789;81;21064;-87
2022/08/13 10:41:07;;;;;;;22.90;11.83;;;;;;;32.34;60.70;100490.95;1745532;81;21140;-87
2022/08/13 10:43:38;;;;;;;21.57;11.05;;;;;;;32.43;60.81;100492.59;1743708;81;20990;-88
2022/08/13 10:46:07;;;;;;;;;;;;;;;32.52;60.50;100488.30;1748433;81;21108;-87
2022/08/13 10:48:34;;;;;;;20.77;11.43;;;;;;;32.57;58.63;100495.04;1743342;80;20178;-88
2022/08/13 10:51:01;;;;;;;29.63;11.90;;;;;;;32.59;58.01;100498.28;1748352;81;21029;-89
2022/08/13 10:56:16;;;;;;;28.95;12.40;;;;;;;32.56;54.37;100488.86;1740825;81;21056;-87
2022/08/13 10:58:43;;;;;;;20.27;10.20;;;;;;;32.54;53.17;100491.55;1740780;81;21049;-88
2022/08/13 11:01:12;;;;;;;21.52;11.60;;;;;;;32.52;59.00;100489.66;1740131;81;21132;-87
2022/08/13 11:03:44;;;;;;;24.65;11.10;;;;;;;32.53;54.97;100491.27;1732213;81;21343;-87
2022/08/13 11:06:09;;;;;;;21.57;11.45;;;;;;;32.53;55.96;100489.92;1734541;81;21968;-87
2022/08/13 11:08:39;;;;;;;20.02;11.60;;;;;;;32.56;54.22;100500.98;1747445;81;21046;-86
2022/08/13 11:11:10;;;;;;;21.85;10.50;;;;;;;32.55;52.30;100485.89;1749236;81;21065;-86
2022/08/13 11:13:42;;;;;;;20.85;10.80;;;;;;;32.51;54.09;100494.77;1749105;81;21571;-87
2022/08/13 11:18:54;;;;;;;12.33;10.20;;;;;;;32.50;53.88;100492.62;1682939;81;21192;-87
2022/08/13 11:21:25;;;;;;;17.87;10.68;;;;;;;32.45;53.86;100489.89;1741306;81;21077;-86
2022/08/13 11:23:54;;;;;;;19.98;12.07;;;;;;;32.45;55.97;100489.09;1751637;80;21064;-87
2022/08/13 11:26:21;;;;;;;20.17;12.20;;;;;;;32.41;57.82;100488.81;1743620;81;21010;-88
2022/08/13 11:28:48;;;;;;;22.40;12.82;;;;;;;32.41;57.82;100488.81;1757444;81;21132;-87
2022/08/13 11:31:15;;;;;;;18.57;11.73;;;;;;;32.36;59.99;100480.73;1756283;81;21146;-87
2022/08/13 11:33:43;;;;;;;17.27;11.78;;;;;;;32.32;56.83;100486.36;1762233;80;21016;-88
2022/08/13 11:36:10;;;;;;;18.75;11.93;;;;;;;32.09;55.08;100479.78;1759673;80;21674;-88
2022/08/13 11:38:37;;;;;;;20.35;12.85;;;;;;;31.90;55.82;100478.63;1746213;81;21058;-88
2022/08/13 11:41:04;;;;;;;19.15;12.10;;;;;;;31.90;55.82;100478.63;1727833;82;21850;-87
2022/08/13 11:43:32;;;;;;;18.05;10.72;;;;;;;31.85;61.23;100471.89;1769452;81;21085;-88
2022/08/13 11:46:01;;;;;;;17.82;12.00;;;;;;;31.92;62.38;100468.42;1770079;80;20986;-88
2022/08/13 11:48:28;;;;;;;20.50;14.10;;;;;;;31.95;57.97;100465.19;1768283;81;21011;-87
2022/08/13 11:50:58;;;;;;;19.30;12.60;;;;;;;32.01;60.74;100461.44;1768374;80;21049;-85
2022/08/13 11:53:30;;;;;;;20.23;11.60;;;;;;;32.20;60.95;100451.55;1759060;80;21495;-88
2022/08/13 11:56:06;;;;;;;19.32;12.07;;;;;;;32.42;58.43;100441.95;1758748;81;21136;-90
2022/08/13 11:58:34;;;;;;;18.17;12.10;;;;;;;32.69;57.84;100444.97;1769801;80;21093;-94
2022/08/13 12:01:06;;;;;;;15.58;11.10;;;;;;;32.95;56.83;100443.11;1771978;80;21500;-92
2022/08/13 12:03:32;;;;;;;18.70;10.85;;;;;;;33.17;56.42;100440.66;1769056;80;21008;-90
2022/08/13 12:06:01;;;;;;;16.40;11.40;;;;;;;33.23;55.95;100438.78;1779888;80;20998;-91
2022/08/13 12:08:29;;;;;;;15.40;9.80;;;;;;;33.19;54.65;100440.66;1780085;79;21959;-91
2022/08/13 12:10:59;;;;;;;15.03;10.05;;;;;;;33.09;54.49;100437.96;1780307;80;21030;-92
2022/08/13 12:13:28;;;;;;;14.40;9.70;;;;;;;32.93;51.76;100435.83;1767164;80;21004;-93
2022/08/13 12:16:01;;;;;;;12.07;9.03;;;;;;;32.79;51.62;100432.05;1742756;82;21004;-89
2022/08/13 12:18:28;;;;;;;24.80;12.05;;;;;;;32.60;52.21;100423.66;1743260;82;20964;-90
2022/08/13 12:20:57;;;;;;;14.13;11.48;;;;;;;32.35;53.29;100436.02;1743094;82;21247;-91